createdAt,value
2018-02-04T00:00:06.393Z,26.77
2018-02-04T00:01:10.300Z,28.10
2018-02-04T00:02:15.147Z,28.25
2018-02-04T00:03:19.344Z,27.50
2018-02-04T00:04:23.669Z,29.90
2018-02-04T00:05:27.601Z,30.62
2018-02-04T00:06:31.623Z,28.73
2018-02-04T00:07:35.705Z,28.75
2018-02-04T00:08:39.703Z,29.23
2018-02-04T00:09:43.790Z,27.70
2018-02-04T00:10:48.032Z,28.02
2018-02-04T00:11:52.880Z,28.25
2018-02-04T00:12:56.852Z,28.40
2018-02-04T00:14:01.609Z,27.33
2018-02-04T00:15:05.747Z,28.30
2018-02-04T00:16:09.777Z,28.70
2018-02-04T00:17:14.781Z,28.52
2018-02-04T00:18:18.684Z,29.02
2018-02-04T00:19:22.748Z,28.10
2018-02-04T00:20:26.906Z,27.08
2018-02-04T00:21:31.649Z,27.70
2018-02-04T00:22:39.753Z,28.38
2018-02-04T00:23:43.698Z,28.85
2018-02-04T00:24:48.487Z,27.60
2018-02-04T00:25:52.493Z,28.17
2018-02-04T00:26:56.485Z,27.35
2018-02-04T00:28:00.417Z,28.00
2018-02-04T00:29:04.832Z,28.43
2018-02-04T00:30:09.279Z,27.45
2018-02-04T00:31:13.677Z,28.40
2018-02-04T00:32:17.883Z,27.93
2018-02-04T00:33:22.065Z,28.52
2018-02-04T00:34:26.547Z,28.40
2018-02-04T00:35:30.807Z,28.10
2018-02-04T00:36:34.959Z,28.20
2018-02-04T00:37:39.280Z,28.80
2018-02-04T00:38:43.424Z,27.70
2018-02-04T00:39:47.609Z,28.80
2018-02-04T00:40:51.917Z,30.85
2018-02-04T00:41:56.713Z,31.05
2018-02-04T00:43:00.882Z,29.08
2018-02-04T00:44:04.807Z,28.73
2018-02-04T00:45:09.033Z,29.40
2018-02-04T00:46:14.114Z,29.48
2018-02-04T00:47:18.398Z,30.95
2018-02-04T00:48:22.452Z,29.05
2018-02-04T00:49:26.500Z,29.70
2018-02-04T00:50:30.906Z,30.58
2018-02-04T00:51:35.031Z,29.98
2018-02-04T00:52:39.313Z,30.45
2018-02-04T00:53:43.468Z,28.65
2018-02-04T00:54:47.587Z,28.73
2018-02-04T00:55:51.867Z,26.33
2018-02-04T00:56:56.024Z,25.80
2018-02-04T00:58:00.273Z,23.97
2018-02-04T00:59:04.716Z,24.42
2018-02-04T01:00:08.682Z,25.33
2018-02-04T01:01:14.078Z,22.87
2018-02-04T01:02:18.142Z,23.10
2018-02-04T01:03:22.141Z,22.17
2018-02-04T01:04:26.190Z,21.87
2018-02-04T01:05:30.455Z,22.60
2018-02-04T01:06:34.392Z,22.27
2018-02-04T01:07:38.492Z,23.50
2018-02-04T01:08:42.654Z,24.02
2018-02-04T01:09:47.658Z,25.42
2018-02-04T01:10:52.053Z,23.90
2018-02-04T01:11:56.422Z,23.95
2018-02-04T01:13:01.382Z,25.17
2018-02-04T01:14:05.589Z,24.63
2018-02-04T01:15:09.780Z,23.85
2018-02-04T01:16:14.056Z,24.95
2018-02-04T01:17:19.202Z,24.00
2018-02-04T01:19:58.073Z,24.43
2018-02-04T01:21:02.164Z,24.98
2018-02-04T01:22:06.338Z,24.20
2018-02-04T01:23:10.521Z,23.65
2018-02-04T01:24:15.388Z,20.80
2018-02-04T01:25:19.572Z,21.73
2018-02-04T01:26:23.567Z,20.75
2018-02-04T01:27:27.560Z,21.50
2018-02-04T01:28:31.572Z,21.20
2018-02-04T01:29:35.743Z,19.70
2018-02-04T01:30:40.476Z,19.70
2018-02-04T01:31:44.476Z,21.05
2018-02-04T01:32:48.473Z,20.35
2018-02-04T01:33:52.545Z,19.05
2018-02-04T01:34:56.537Z,19.20
2018-02-04T01:36:00.512Z,17.85
2018-02-04T01:37:04.515Z,18.83
2018-02-04T01:38:09.432Z,16.58
2018-02-04T01:39:15.650Z,17.27
2018-02-04T01:40:19.757Z,17.12
2018-02-04T01:41:24.479Z,16.83
2018-02-04T01:42:30.657Z,17.15
2018-02-04T01:43:35.100Z,16.65
2018-02-04T01:44:41.052Z,16.50
2018-02-04T01:45:45.430Z,15.33
2018-02-04T01:46:49.596Z,15.48
2018-02-04T01:48:02.562Z,15.85
2018-02-04T01:49:06.825Z,14.15
2018-02-04T01:50:10.808Z,14.38
2018-02-04T01:51:15.024Z,14.50
2018-02-04T01:52:19.793Z,14.80
2018-02-04T01:53:23.871Z,13.95
2018-02-04T01:54:27.940Z,14.00
2018-02-04T01:55:31.991Z,14.15
2018-02-04T01:56:35.989Z,12.37
2018-02-04T01:57:39.921Z,11.53
2018-02-04T01:58:44.001Z,10.95
2018-02-04T01:59:48.708Z,10.68
2018-02-04T02:00:53.487Z,11.20
2018-02-04T02:01:57.638Z,10.70
2018-02-04T02:03:02.485Z,10.52
2018-02-04T02:04:06.865Z,9.47
2018-02-04T02:05:11.667Z,10.30
2018-02-04T02:06:15.842Z,9.60
2018-02-04T02:07:20.121Z,10.25
2018-02-04T02:08:24.276Z,10.60
2018-02-04T02:09:28.847Z,10.55
2018-02-04T02:10:33.062Z,10.85
2018-02-04T02:11:37.249Z,10.10
2018-02-04T02:12:41.403Z,10.35
2018-02-04T02:13:45.671Z,9.23
2018-02-04T02:14:49.813Z,10.40
2018-02-04T02:15:54.003Z,10.48
2018-02-04T02:16:58.097Z,9.95
2018-02-04T02:18:02.398Z,9.43
2018-02-04T02:19:06.616Z,9.65
2018-02-04T02:20:10.800Z,9.80
2018-02-04T02:21:15.001Z,10.75
2018-02-04T02:22:19.227Z,11.40
2018-02-04T02:23:23.358Z,11.25
2018-02-04T02:24:27.670Z,11.90
2018-02-04T02:25:32.552Z,12.02
2018-02-04T02:26:36.696Z,12.60
2018-02-04T02:27:40.752Z,12.88
2018-02-04T02:28:44.817Z,13.25
2018-02-04T02:29:49.841Z,12.65
2018-02-04T02:30:54.615Z,13.60
2018-02-04T02:31:58.552Z,14.80
2018-02-04T02:33:03.287Z,12.73
2018-02-04T02:34:07.260Z,13.00
2018-02-04T02:35:12.051Z,13.15
2018-02-04T02:36:16.040Z,14.03
2018-02-04T02:37:20.173Z,14.10
2018-02-04T02:38:24.461Z,13.80
2018-02-04T02:39:28.508Z,14.85
2018-02-04T02:40:32.468Z,13.27
2018-02-04T02:41:36.462Z,13.77
2018-02-04T02:42:40.419Z,13.90
2018-02-04T02:43:44.655Z,15.00
2018-02-04T02:44:48.712Z,14.50
2018-02-04T02:45:52.747Z,13.90
2018-02-04T02:46:57.137Z,13.65
2018-02-04T02:48:01.495Z,14.18
2018-02-04T02:49:05.643Z,13.90
2018-02-04T02:50:09.947Z,14.50
2018-02-04T02:54:24.644Z,15.82
2018-02-04T02:55:28.909Z,15.15
2018-02-04T02:56:33.898Z,15.18
2018-02-04T02:57:38.045Z,14.52
2018-02-04T02:58:42.206Z,14.90
2018-02-04T02:59:46.345Z,14.98
2018-02-04T03:00:51.443Z,15.00
2018-02-04T03:01:55.617Z,14.90
2018-02-04T03:03:06.209Z,15.52
2018-02-04T03:04:10.298Z,15.38
2018-02-04T03:05:14.478Z,15.60
2018-02-04T03:06:18.747Z,16.27
2018-02-04T03:07:22.928Z,15.57
2018-02-04T03:08:27.856Z,16.10
2018-02-04T03:09:32.731Z,17.02
2018-02-04T03:10:36.943Z,16.40
2018-02-04T03:11:41.144Z,16.15
2018-02-04T03:12:45.320Z,15.98
2018-02-04T03:13:49.553Z,17.30
2018-02-04T03:14:53.896Z,16.83
2018-02-04T03:15:58.796Z,17.60
2018-02-04T03:17:02.887Z,17.33
2018-02-04T03:18:06.877Z,17.50
2018-02-04T03:19:11.107Z,18.30
2018-02-04T03:20:15.130Z,19.00
2018-02-04T03:21:19.167Z,18.52
2018-02-04T03:22:23.196Z,18.95
2018-02-04T03:23:27.167Z,18.92
2018-02-04T03:24:31.134Z,19.60
2018-02-04T03:25:36.184Z,19.10
2018-02-04T03:26:40.150Z,19.17
2018-02-04T03:27:44.915Z,19.77
2018-02-04T03:28:48.923Z,21.10
2018-02-04T03:29:53.189Z,20.10
2018-02-04T03:30:58.068Z,20.85
2018-02-04T03:32:02.043Z,22.73
2018-02-04T03:33:06.084Z,22.00
2018-02-04T03:34:10.120Z,23.60
2018-02-04T03:35:14.273Z,22.90
2018-02-04T03:36:18.216Z,22.08
2018-02-04T03:37:22.176Z,22.80
2018-02-04T03:38:26.165Z,22.05
2018-02-04T03:39:30.110Z,22.87
2018-02-04T03:40:34.164Z,21.98
2018-02-04T03:41:38.304Z,23.20
2018-02-04T03:42:43.069Z,23.02
2018-02-04T03:43:47.041Z,22.98
2018-02-04T03:44:51.028Z,22.90
2018-02-04T03:45:55.709Z,22.15
2018-02-04T03:46:59.763Z,22.55
2018-02-04T03:48:03.687Z,21.92
2018-02-04T03:49:07.670Z,21.35
2018-02-04T03:50:12.421Z,20.90
2018-02-04T03:51:16.428Z,21.20
2018-02-04T03:52:20.434Z,21.08
2018-02-04T03:53:24.599Z,20.70
2018-02-04T03:54:29.316Z,20.67
2018-02-04T03:55:34.688Z,20.23
2018-02-04T03:56:39.024Z,21.33
2018-02-04T03:57:43.223Z,21.15
2018-02-04T03:58:48.076Z,19.80
2018-02-04T03:59:52.228Z,20.40
2018-02-04T04:00:56.363Z,19.62
2018-02-04T04:02:00.744Z,20.48
2018-02-04T04:03:05.808Z,20.05
2018-02-04T04:04:09.977Z,21.17
2018-02-04T04:05:14.776Z,20.75
2018-02-04T04:06:18.794Z,20.75
2018-02-04T04:07:23.557Z,21.35
2018-02-04T04:08:27.530Z,20.00
2018-02-04T04:09:31.454Z,20.20
2018-02-04T04:10:35.447Z,20.10
2018-02-04T04:11:39.438Z,20.52
2018-02-04T04:12:43.485Z,18.85
2018-02-04T04:13:47.430Z,19.00
2018-02-04T04:14:51.371Z,19.77
2018-02-04T04:15:55.388Z,18.62
2018-02-04T04:16:59.318Z,18.87
2018-02-04T04:18:04.368Z,18.70
2018-02-04T04:19:08.305Z,19.10
2018-02-04T04:20:12.422Z,18.77
2018-02-04T04:21:16.355Z,18.80
2018-02-04T04:22:20.287Z,17.48
2018-02-04T04:23:24.513Z,18.15
2018-02-04T04:24:28.715Z,19.85
2018-02-04T04:25:32.870Z,18.80
2018-02-04T04:26:36.957Z,18.02
2018-02-04T04:27:41.113Z,18.50
2018-02-04T04:28:45.480Z,18.05
2018-02-04T04:29:49.620Z,17.33
2018-02-04T04:30:53.724Z,17.12
2018-02-04T04:31:57.818Z,16.10
2018-02-04T04:33:01.927Z,16.30
2018-02-04T04:34:06.130Z,15.95
2018-02-04T04:35:10.293Z,15.85
2018-02-04T04:36:14.530Z,15.93
2018-02-04T04:37:18.611Z,15.77
2018-02-04T04:38:22.689Z,15.80
2018-02-04T04:39:27.943Z,15.48
2018-02-04T04:40:32.083Z,15.70
2018-02-04T04:41:36.258Z,15.98
2018-02-04T04:42:40.388Z,16.17
2018-02-04T04:43:44.359Z,15.27
2018-02-04T04:44:48.312Z,15.98
2018-02-04T04:45:53.101Z,15.88
2018-02-04T04:46:57.045Z,15.50
2018-02-04T04:48:01.813Z,16.17
2018-02-04T04:49:05.796Z,16.12
2018-02-04T04:50:09.883Z,15.40
2018-02-04T04:51:13.947Z,16.33
2018-02-04T04:52:17.992Z,16.02
2018-02-04T04:53:22.932Z,16.05
2018-02-04T04:54:27.714Z,15.85
2018-02-04T04:55:32.065Z,15.70
2018-02-04T04:56:36.235Z,15.80
2018-02-04T04:57:40.350Z,15.60
2018-02-04T04:58:44.509Z,15.48
2018-02-04T04:59:49.478Z,14.60
2018-02-04T05:00:53.624Z,14.65
2018-02-04T05:01:57.606Z,14.07
2018-02-04T05:03:01.598Z,13.23
2018-02-04T05:04:05.575Z,12.52
2018-02-04T05:05:09.544Z,13.45
2018-02-04T05:06:14.333Z,13.20
2018-02-04T05:07:18.436Z,12.13
2018-02-04T05:08:22.472Z,12.60
2018-02-04T05:09:26.405Z,13.48
2018-02-04T05:10:30.465Z,11.95
2018-02-04T05:11:34.600Z,12.50
2018-02-04T05:12:38.579Z,10.95
2018-02-04T05:13:42.835Z,11.00
2018-02-04T05:14:46.977Z,10.70
2018-02-04T05:15:51.930Z,10.77
2018-02-04T05:16:56.107Z,9.40
2018-02-04T05:18:00.348Z,8.53
2018-02-04T05:19:04.458Z,7.90
2018-02-04T05:20:08.401Z,8.10
2018-02-04T05:21:13.202Z,8.68
2018-02-04T05:22:17.218Z,7.80
2018-02-04T05:23:21.933Z,8.00
2018-02-04T05:24:26.677Z,8.50
2018-02-04T05:25:30.678Z,7.87
2018-02-04T05:26:34.685Z,7.47
2018-02-04T05:27:38.944Z,7.83
2018-02-04T05:28:43.053Z,7.15
2018-02-04T05:29:47.243Z,6.65
2018-02-04T05:30:51.498Z,7.03
2018-02-04T05:31:55.650Z,6.60
2018-02-04T05:32:59.901Z,6.97
2018-02-04T05:34:04.388Z,7.55
2018-02-04T05:35:09.328Z,7.10
2018-02-04T05:36:13.644Z,7.12
2018-02-04T05:37:17.812Z,6.70
2018-02-04T05:38:22.044Z,6.10
2018-02-04T05:39:27.394Z,7.15
2018-02-04T05:40:31.537Z,6.30
2018-02-04T05:41:35.792Z,6.10
2018-02-04T05:42:39.885Z,6.50
2018-02-04T05:43:44.089Z,6.87
2018-02-04T05:44:48.862Z,5.60
2018-02-04T05:45:52.804Z,6.40
2018-02-04T05:46:57.679Z,6.95
2018-02-04T05:48:01.603Z,6.70
2018-02-04T05:49:06.388Z,6.20
2018-02-04T05:50:10.435Z,5.90
2018-02-04T05:51:15.160Z,6.30
2018-02-04T05:52:19.248Z,6.23
2018-02-04T05:53:24.274Z,6.50
2018-02-04T05:54:29.221Z,6.70
2018-02-04T05:55:33.381Z,6.80
2018-02-04T05:56:37.728Z,6.65
2018-02-04T05:57:41.767Z,6.90
2018-02-04T05:58:45.717Z,7.00
2018-02-04T05:59:50.456Z,6.85
2018-02-04T06:00:54.402Z,7.80
2018-02-04T06:01:58.441Z,6.95
2018-02-04T06:03:03.401Z,7.50
2018-02-04T06:04:07.460Z,7.15
2018-02-04T06:05:11.595Z,7.65
2018-02-04T06:06:15.597Z,7.50
2018-02-04T06:07:19.734Z,7.35
2018-02-04T06:08:24.079Z,7.25
2018-02-04T06:09:27.993Z,7.43
2018-02-04T06:10:32.112Z,7.62
2018-02-04T06:11:36.077Z,7.85
2018-02-04T06:12:40.516Z,7.30
2018-02-04T06:13:44.781Z,9.18
2018-02-04T06:14:49.639Z,8.55
2018-02-04T06:15:53.792Z,8.68
2018-02-04T06:16:57.891Z,8.43
2018-02-04T06:18:02.022Z,9.23
2018-02-04T06:19:06.231Z,9.10
2018-02-04T06:20:10.539Z,9.05
2018-02-04T06:21:14.821Z,9.00
2018-02-04T06:22:20.926Z,8.43
2018-02-04T06:23:25.099Z,8.40
2018-02-04T06:24:29.489Z,8.10
2018-02-04T06:25:34.441Z,7.40
2018-02-04T06:26:38.662Z,6.60
2018-02-04T06:27:42.823Z,7.22
2018-02-04T06:28:47.729Z,6.82
2018-02-04T06:29:51.849Z,6.62
2018-02-04T06:30:56.703Z,5.60
2018-02-04T06:32:00.819Z,6.37
2018-02-04T06:33:05.037Z,5.90
2018-02-04T06:34:09.266Z,6.05
2018-02-04T06:35:14.157Z,5.60
2018-02-04T06:36:18.333Z,5.85
2018-02-04T06:37:22.428Z,6.20
2018-02-04T06:38:26.585Z,6.00
2018-02-04T06:39:31.067Z,6.43
2018-02-04T06:40:35.357Z,5.87
2018-02-04T06:41:39.342Z,6.70
2018-02-04T06:42:43.582Z,6.10
2018-02-04T06:43:47.615Z,6.75
2018-02-04T06:44:51.712Z,6.97
2018-02-04T06:45:57.043Z,7.80
2018-02-04T06:47:01.089Z,7.50
2018-02-04T06:48:05.317Z,7.87
2018-02-04T06:49:09.296Z,7.78
2018-02-04T06:50:13.465Z,7.53
2018-02-04T06:51:18.214Z,8.07
2018-02-04T06:52:22.376Z,7.62
2018-02-04T06:53:26.316Z,6.93
2018-02-04T06:54:30.716Z,7.70
2018-02-04T06:55:34.935Z,7.40
2018-02-04T06:56:39.078Z,7.82
2018-02-04T06:57:43.191Z,7.50
2018-02-04T06:58:47.445Z,7.50
2018-02-04T06:59:51.447Z,7.40
2018-02-04T07:00:55.435Z,6.93
2018-02-04T07:01:59.883Z,7.68
2018-02-04T07:03:03.907Z,6.97
2018-02-04T07:04:08.016Z,6.82
2018-02-04T07:05:12.921Z,7.28
2018-02-04T07:06:17.165Z,7.82
2018-02-04T07:07:21.895Z,7.75
2018-02-04T07:08:25.857Z,7.78
2018-02-04T07:09:29.924Z,6.62
2018-02-04T07:10:34.025Z,7.65
2018-02-04T07:11:38.041Z,6.90
2018-02-04T07:12:42.084Z,6.68
2018-02-04T07:13:46.101Z,6.65
2018-02-04T07:14:50.081Z,6.17
2018-02-04T07:15:54.984Z,6.45
2018-02-04T07:16:59.036Z,6.70
2018-02-04T07:18:03.052Z,7.00
2018-02-04T07:19:06.965Z,6.20
2018-02-04T07:20:11.032Z,6.10
2018-02-04T07:21:14.954Z,6.80
2018-02-04T07:22:18.915Z,6.60
2018-02-04T07:23:23.047Z,6.68
2018-02-04T07:24:27.028Z,6.18
2018-02-04T07:25:31.962Z,6.50
2018-02-04T07:26:36.114Z,7.03
2018-02-04T07:27:40.808Z,6.47
2018-02-04T07:28:44.808Z,6.28
2018-02-04T07:29:48.761Z,5.72
2018-02-04T07:30:53.069Z,5.40
2018-02-04T07:31:57.551Z,5.28
2018-02-04T07:33:02.508Z,5.95
2018-02-04T07:34:06.661Z,5.50
2018-02-04T07:35:10.754Z,5.03
2018-02-04T07:36:14.936Z,5.10
2018-02-04T07:37:19.071Z,4.30
2018-02-04T07:38:23.971Z,5.40
2018-02-04T07:39:28.142Z,4.82
2018-02-04T07:40:32.334Z,4.45
2018-02-04T07:41:36.461Z,4.60
2018-02-04T07:42:40.412Z,4.40
2018-02-04T07:43:45.173Z,4.10
2018-02-04T07:44:49.432Z,4.97
2018-02-04T07:45:53.417Z,4.22
2018-02-04T07:46:57.366Z,3.50
2018-02-04T07:48:01.411Z,3.35
2018-02-04T07:49:05.549Z,3.40
2018-02-04T07:50:10.232Z,4.50
2018-02-04T07:51:14.568Z,3.55
2018-02-04T07:52:19.267Z,3.50
2018-02-04T07:53:23.285Z,3.15
2018-02-04T07:54:28.115Z,3.30
2018-02-04T07:55:32.113Z,3.05
2018-02-04T07:56:36.378Z,3.70
2018-02-04T07:57:40.498Z,3.65
2018-02-04T07:58:45.427Z,4.10
2018-02-04T07:59:50.268Z,3.80
2018-02-04T08:00:54.609Z,3.80
2018-02-04T08:01:58.712Z,6.05
2018-02-04T08:03:03.176Z,4.68
2018-02-04T08:04:08.080Z,4.15
2018-02-04T08:05:12.308Z,3.37
2018-02-04T08:06:17.231Z,3.58
2018-02-04T08:07:21.390Z,3.67
2018-02-04T08:08:25.503Z,5.85
2018-02-04T08:09:29.868Z,3.50
2018-02-04T08:10:33.978Z,3.47
2018-02-04T08:11:37.941Z,4.07
2018-02-04T08:12:42.666Z,3.85
2018-02-04T08:13:46.736Z,4.60
2018-02-04T08:14:51.012Z,4.18
2018-02-04T08:15:55.019Z,3.80
2018-02-04T08:16:58.944Z,3.72
2018-02-04T08:18:03.696Z,4.20
2018-02-04T08:19:07.654Z,3.80
2018-02-04T08:20:11.734Z,4.05
2018-02-04T08:21:16.244Z,3.62
2018-02-04T08:22:21.755Z,4.03
2018-02-04T08:23:25.895Z,3.65
2018-02-04T08:24:30.148Z,3.58
2018-02-04T08:25:34.520Z,3.30
2018-02-04T08:26:38.637Z,3.60
2018-02-04T08:27:43.786Z,4.00
2018-02-04T08:28:47.948Z,3.97
2018-02-04T08:29:52.361Z,3.95
2018-02-04T08:30:56.302Z,4.50
2018-02-04T08:32:00.266Z,3.75
2018-02-04T08:33:04.505Z,3.72
2018-02-04T08:34:08.725Z,4.40
2018-02-04T08:35:13.295Z,4.30
2018-02-04T08:36:18.384Z,4.70
2018-02-04T08:37:22.671Z,4.13
2018-02-04T08:38:26.876Z,4.20
2018-02-04T08:39:31.565Z,3.95
2018-02-04T08:40:36.607Z,4.00
2018-02-04T08:41:43.438Z,3.42
2018-02-04T08:42:49.264Z,3.90
2018-02-04T08:43:53.622Z,3.85
2018-02-04T08:44:57.980Z,4.00
2018-02-04T08:48:09.457Z,4.50
2018-02-04T08:49:14.210Z,3.47
2018-02-04T08:50:19.263Z,4.05
2018-02-04T08:51:23.785Z,3.87
2018-02-04T08:52:28.089Z,4.10
2018-02-04T08:53:32.748Z,4.60
2018-02-04T08:54:37.379Z,4.32
2018-02-04T08:55:42.506Z,5.10
2018-02-04T08:56:47.468Z,4.55
2018-02-04T08:57:52.008Z,3.90
2018-02-04T08:58:56.273Z,4.35
2018-02-04T09:00:00.752Z,4.90
2018-02-04T09:01:05.778Z,4.80
2018-02-04T09:02:10.999Z,4.65
2018-02-04T09:03:17.674Z,4.65
2018-02-04T09:04:26.360Z,4.60
2018-02-04T09:05:32.886Z,4.50
2018-02-04T09:06:37.671Z,4.50
2018-02-04T09:07:43.865Z,4.50
2018-02-04T09:08:48.792Z,4.60
2018-02-04T09:09:53.376Z,4.82
2018-02-04T09:10:57.666Z,5.12
2018-02-04T09:12:03.263Z,4.30
2018-02-04T09:13:07.482Z,4.60
2018-02-04T09:14:11.650Z,4.90
2018-02-04T09:15:15.987Z,4.70
2018-02-04T09:16:20.240Z,4.87
2018-02-04T09:17:24.421Z,4.50
2018-02-04T09:18:28.938Z,4.80
2018-02-04T09:19:33.140Z,5.07
2018-02-04T09:20:37.453Z,5.32
2018-02-04T09:21:42.228Z,5.25
2018-02-04T09:22:46.270Z,5.10
2018-02-04T09:23:50.310Z,4.68
2018-02-04T09:24:54.302Z,5.03
2018-02-04T09:25:58.284Z,6.05
2018-02-04T09:27:03.078Z,6.47
2018-02-04T09:28:07.257Z,6.03
2018-02-04T09:29:11.754Z,4.82
2018-02-04T09:30:15.825Z,5.65
2018-02-04T09:31:19.998Z,5.30
2018-02-04T09:32:24.059Z,4.28
2018-02-04T09:33:28.144Z,4.68
2018-02-04T09:34:32.547Z,4.50
2018-02-04T09:35:36.678Z,4.20
2018-02-04T09:36:40.756Z,4.70
2018-02-04T09:37:44.757Z,4.80
2018-02-04T09:38:49.339Z,5.00
2018-02-04T09:39:53.621Z,4.55
2018-02-04T09:40:58.007Z,5.60
2018-02-04T09:42:02.193Z,4.20
2018-02-04T09:43:06.668Z,4.15
2018-02-04T09:44:11.067Z,4.50
2018-02-04T09:45:15.262Z,4.20
2018-02-04T09:46:19.308Z,4.50
2018-02-04T09:47:23.508Z,4.70
2018-02-04T09:48:27.746Z,4.80
2018-02-04T09:49:31.861Z,4.85
2018-02-04T09:50:35.851Z,5.20
2018-02-04T09:51:40.247Z,4.20
2018-02-04T09:52:44.187Z,4.53
2018-02-04T09:53:48.144Z,4.20
2018-02-04T09:54:52.104Z,4.60
2018-02-04T09:55:56.817Z,4.45
2018-02-04T09:57:01.059Z,4.85
2018-02-04T09:58:05.228Z,4.80
2018-02-04T09:59:10.114Z,4.40
2018-02-04T10:00:14.133Z,4.00
2018-02-04T10:01:18.237Z,4.00
2018-02-04T10:02:22.669Z,4.80
2018-02-04T10:03:27.449Z,4.90
2018-02-04T10:04:31.544Z,4.45
2018-02-04T10:05:36.086Z,4.87
2018-02-04T10:06:40.888Z,4.90
2018-02-04T10:07:45.008Z,4.72
2018-02-04T10:08:49.081Z,5.00
2018-02-04T10:09:53.284Z,4.85
2018-02-04T10:10:57.312Z,4.95
2018-02-04T10:12:01.263Z,4.53
2018-02-04T10:13:05.184Z,5.10
2018-02-04T10:14:09.242Z,5.28
2018-02-04T10:15:13.209Z,5.70
2018-02-04T10:16:17.238Z,5.70
2018-02-04T10:17:21.940Z,5.45
2018-02-04T10:19:45.437Z,5.50
2018-02-04T10:20:49.973Z,5.20
2018-02-04T10:21:54.209Z,5.93
2018-02-04T10:22:58.317Z,5.80
2018-02-04T10:24:02.423Z,6.45
2018-02-04T10:25:07.508Z,6.62
2018-02-04T10:26:11.785Z,6.95
2018-02-04T10:27:16.097Z,7.05
2018-02-04T10:28:20.470Z,6.70
2018-02-04T10:29:25.421Z,6.30
2018-02-04T10:30:29.589Z,6.50
2018-02-04T10:31:34.500Z,6.47
2018-02-04T10:32:39.113Z,6.93
2018-02-04T10:33:43.710Z,6.70
2018-02-04T10:34:48.197Z,7.40
2018-02-04T10:35:52.356Z,7.40
2018-02-04T10:36:57.256Z,7.15
2018-02-04T10:38:01.438Z,7.03
2018-02-04T10:39:06.324Z,7.35
2018-02-04T10:40:10.878Z,8.13
2018-02-04T10:41:15.054Z,7.80
2018-02-04T10:42:19.217Z,7.05
2018-02-04T10:43:23.402Z,7.70
2018-02-04T10:44:27.506Z,7.93
2018-02-04T10:45:31.944Z,7.17
2018-02-04T10:46:36.873Z,7.10
2018-02-04T10:47:41.829Z,7.43
2018-02-04T10:48:45.974Z,7.22
2018-02-04T10:49:50.189Z,7.80
2018-02-04T10:50:58.499Z,6.90
2018-02-04T10:52:03.748Z,6.85
2018-02-04T10:53:07.857Z,6.80
2018-02-04T10:54:11.989Z,6.18
2018-02-04T10:55:16.163Z,6.82
2018-02-04T10:56:20.368Z,6.62
2018-02-04T10:57:24.403Z,6.70
2018-02-04T10:58:28.863Z,7.03
2018-02-04T10:59:33.649Z,7.30
2018-02-04T11:00:37.591Z,6.30
2018-02-04T11:01:41.610Z,6.47
2018-02-04T11:02:45.565Z,6.15
2018-02-04T11:03:50.353Z,5.82
2018-02-04T11:04:54.759Z,6.40
2018-02-04T11:05:58.883Z,6.80
2018-02-04T11:07:03.868Z,6.20
2018-02-04T11:08:08.066Z,6.05
2018-02-04T11:09:12.429Z,6.62
2018-02-04T11:10:17.325Z,6.32
2018-02-04T11:11:21.550Z,6.40
2018-02-04T11:12:25.673Z,6.53
2018-02-04T11:13:29.833Z,6.50
2018-02-04T11:14:34.033Z,6.30
2018-02-04T11:15:38.153Z,5.93
2018-02-04T11:16:42.598Z,5.75
2018-02-04T11:17:47.520Z,6.12
2018-02-04T11:18:51.612Z,5.65
2018-02-04T11:19:56.565Z,6.00
2018-02-04T11:21:00.685Z,6.30
2018-02-04T11:22:04.863Z,5.90
2018-02-04T11:23:09.300Z,5.95
2018-02-04T11:24:13.453Z,5.95
2018-02-04T11:25:18.420Z,6.60
2018-02-04T11:26:23.689Z,5.57
2018-02-04T11:27:28.536Z,5.80
2018-02-04T11:28:33.309Z,5.90
2018-02-04T11:29:37.264Z,6.00
2018-02-04T11:30:41.285Z,6.50
2018-02-04T11:31:45.419Z,5.90
2018-02-04T11:32:49.653Z,5.87
2018-02-04T11:33:54.507Z,5.60
2018-02-04T11:34:59.254Z,6.80
2018-02-04T11:36:03.405Z,6.00
2018-02-04T11:37:07.584Z,6.17
2018-02-04T11:38:11.670Z,5.72
2018-02-04T11:39:15.621Z,6.40
2018-02-04T11:40:19.721Z,6.50
2018-02-04T11:41:23.942Z,6.60
2018-02-04T11:42:28.191Z,6.10
2018-02-04T11:43:33.467Z,6.35
2018-02-04T11:44:37.500Z,6.62
2018-02-04T11:45:41.667Z,5.53
2018-02-04T11:46:45.945Z,6.62
2018-02-04T11:47:50.897Z,6.50
2018-02-04T11:48:55.493Z,7.25
2018-02-04T11:50:00.427Z,6.55
2018-02-04T11:51:04.612Z,8.02
2018-02-04T11:52:09.524Z,7.75
2018-02-04T11:53:13.782Z,7.40
2018-02-04T11:54:18.129Z,8.05
2018-02-04T11:55:22.499Z,7.22
2018-02-04T11:56:26.556Z,6.82
2018-02-04T11:57:31.850Z,6.60
2018-02-04T11:58:35.789Z,7.87
2018-02-04T11:59:40.969Z,7.40
2018-02-04T12:00:45.497Z,7.18
2018-02-04T12:01:49.698Z,7.00
2018-02-04T12:02:53.901Z,6.40
2018-02-04T12:03:58.089Z,6.97
2018-02-04T12:05:02.344Z,6.87
2018-02-04T12:06:07.385Z,7.40
2018-02-04T12:07:11.796Z,7.50
2018-02-04T12:08:15.812Z,7.10
2018-02-04T12:09:19.834Z,7.07
2018-02-04T12:10:23.795Z,7.22
2018-02-04T12:11:27.826Z,7.50
2018-02-04T12:12:31.846Z,7.20
2018-02-04T12:13:36.370Z,7.10
2018-02-04T12:14:41.175Z,7.40
2018-02-04T12:15:45.152Z,6.40
2018-02-04T12:16:49.154Z,7.07
2018-02-04T12:17:53.505Z,6.68
2018-02-04T12:18:58.907Z,6.72
2018-02-04T12:20:03.728Z,7.78
2018-02-04T12:21:07.730Z,6.90
2018-02-04T12:22:11.761Z,6.62
2018-02-04T12:23:16.534Z,6.90
2018-02-04T12:24:20.797Z,7.55
2018-02-04T12:25:25.538Z,8.00
2018-02-04T12:26:29.454Z,7.60
2018-02-04T12:27:33.742Z,7.37
2018-02-04T12:28:38.010Z,7.10
2018-02-04T12:29:43.469Z,7.05
2018-02-04T12:30:47.616Z,6.75
2018-02-04T12:31:51.827Z,8.15
2018-02-04T12:32:56.291Z,9.00
2018-02-04T12:34:01.235Z,8.13
2018-02-04T12:35:05.509Z,8.55
2018-02-04T12:36:09.620Z,8.60
2018-02-04T12:37:13.764Z,7.93
2018-02-04T12:38:17.897Z,8.40
2018-02-04T12:39:21.898Z,7.60
2018-02-04T12:40:25.921Z,7.05
2018-02-04T12:41:29.965Z,7.40
2018-02-04T12:42:34.144Z,8.23
2018-02-04T12:43:38.233Z,7.78
2018-02-04T12:44:42.359Z,8.20
2018-02-04T12:45:46.434Z,7.90
2018-02-04T12:46:50.477Z,7.93
2018-02-04T12:47:54.523Z,8.07
2018-02-04T12:48:59.286Z,7.90
2018-02-04T12:50:03.587Z,6.93
2018-02-04T12:51:07.640Z,7.70
2018-02-04T12:52:12.477Z,7.18
2018-02-04T12:53:17.304Z,6.85
2018-02-04T12:54:21.635Z,7.78
2018-02-04T12:55:25.566Z,7.43
2018-02-04T12:56:29.672Z,9.00
2018-02-04T12:57:33.623Z,9.70
2018-02-04T12:58:37.620Z,8.95
2018-02-04T12:59:41.568Z,9.80
2018-02-04T13:00:45.602Z,9.10
2018-02-04T13:01:49.577Z,9.57
2018-02-04T13:02:53.901Z,8.05
2018-02-04T13:03:58.863Z,7.75
2018-02-04T13:05:03.060Z,8.20
2018-02-04T13:06:07.348Z,7.78
2018-02-04T13:07:11.832Z,7.35
2018-02-04T13:08:16.784Z,6.93
2018-02-04T13:09:21.019Z,7.25
2018-02-04T13:10:25.233Z,7.05
2018-02-04T13:11:29.487Z,7.25
2018-02-04T13:12:34.841Z,7.28
2018-02-04T13:13:38.987Z,6.55
2018-02-04T13:14:43.131Z,7.68
2018-02-04T13:15:47.427Z,8.43
2018-02-04T13:16:52.383Z,7.47
2018-02-04T13:17:56.536Z,7.20
2018-02-04T13:19:00.782Z,6.80
2018-02-04T13:20:04.926Z,7.00
2018-02-04T13:21:09.044Z,6.32
2018-02-04T13:22:13.169Z,6.20
2018-02-04T13:23:18.222Z,6.10
2018-02-04T13:24:23.107Z,8.37
2018-02-04T13:25:28.403Z,7.90
2018-02-04T13:26:32.536Z,7.60
2018-02-04T13:27:37.417Z,8.38
2018-02-04T13:28:41.513Z,8.77
2018-02-04T13:29:45.677Z,10.20
2018-02-04T13:30:49.870Z,9.83
2018-02-04T13:31:55.266Z,8.93
2018-02-04T13:32:59.384Z,8.60
2018-02-04T13:34:03.500Z,7.82
2018-02-04T13:35:07.672Z,8.18
2018-02-04T13:36:11.834Z,7.35
2018-02-04T13:37:16.183Z,7.10
2018-02-04T13:38:20.630Z,7.03
2018-02-04T13:39:25.570Z,7.30
2018-02-04T13:40:30.488Z,7.53
2018-02-04T13:41:35.441Z,6.43
2018-02-04T13:42:39.580Z,5.37
2018-02-04T13:43:43.897Z,5.45
2018-02-04T13:44:48.096Z,6.00
2018-02-04T13:45:52.233Z,5.62
2018-02-04T13:46:56.408Z,5.62
2018-02-04T13:48:00.552Z,6.10
2018-02-04T13:49:07.020Z,5.70
2018-02-04T13:50:11.472Z,5.87
2018-02-04T13:51:16.036Z,5.28
2018-02-04T13:52:20.534Z,5.35
2018-02-04T13:53:24.715Z,4.93
2018-02-04T13:54:28.866Z,6.00
2018-02-04T13:55:33.021Z,5.28
2018-02-04T13:56:37.345Z,5.00
2018-02-04T13:57:42.560Z,5.62
2018-02-04T13:58:47.644Z,6.35
2018-02-04T13:59:51.854Z,6.43
2018-02-04T14:00:56.145Z,5.15
2018-02-04T14:02:00.270Z,5.45
2018-02-04T14:03:04.546Z,6.03
2018-02-04T14:04:08.961Z,10.43
2018-02-04T14:05:13.076Z,7.70
2018-02-04T14:06:17.353Z,6.93
2018-02-04T14:07:21.505Z,5.65
2018-02-04T14:08:25.634Z,7.03
2018-02-04T14:09:30.658Z,5.33
2018-02-04T14:10:35.660Z,4.70
2018-02-04T14:11:40.048Z,4.30
2018-02-04T14:12:44.117Z,4.72
2018-02-04T14:13:48.103Z,4.28